sensor_id;sensor_type;location;lat;lon;timestamp;temperature;humidity
14995;DHT22;7593;49.006;8.372;2022-12-07T00:00:49;4.20;99.90
14995;DHT22;7593;49.006;8.372;2022-12-07T00:03:16;4.20;99.90
14995;DHT22;7593;49.006;8.372;2022-12-07T00:05:43;4.10;99.90
14995;DHT22;7593;49.006;8.372;2022-12-07T00:08:11;4.10;99.90
14995;DHT22;7593;49.006;8.372;2022-12-07T00:10:37;4.10;99.90
14995;DHT22;7593;49.006;8.372;2022-12-07T00:13:04;4.10;99.90
14995;DHT22;7593;49.006;8.372;2022-12-07T00:15:33;4.10;99.90
14995;DHT22;7593;49.006;8.372;2022-12-07T00:18:00;4.10;99.90
14995;DHT22;7593;49.006;8.372;2022-12-07T00:20:27;4.10;99.90
14995;DHT22;7593;49.006;8.372;2022-12-07T00:22:54;4.10;99.90
14995;DHT22;7593;49.006;8.372;2022-12-07T00:25:22;4.10;99.90
14995;DHT22;7593;49.006;8.372;2022-12-07T00:27:49;4.10;99.90
14995;DHT22;7593;49.006;8.372;2022-12-07T00:30:15;4.10;99.90
14995;DHT22;7593;49.006;8.372;2022-12-07T00:32:42;4.00;99.90
14995;DHT22;7593;49.006;8.372;2022-12-07T00:35:09;4.00;99.90
14995;DHT22;7593;49.006;8.372;2022-12-07T00:37:36;4.00;99.90
14995;DHT22;7593;49.006;8.372;2022-12-07T00:40:03;4.00;99.90
14995;DHT22;7593;49.006;8.372;2022-12-07T00:42:32;4.00;99.90
14995;DHT22;7593;49.006;8.372;2022-12-07T00:44:59;4.00;99.90
14995;DHT22;7593;49.006;8.372;2022-12-07T00:47:26;4.00;99.90
14995;DHT22;7593;49.006;8.372;2022-12-07T00:49:53;4.00;99.90
14995;DHT22;7593;49.006;8.372;2022-12-07T00:52:19;4.00;99.90
14995;DHT22;7593;49.006;8.372;2022-12-07T00:54:46;4.00;99.90
14995;DHT22;7593;49.006;8.372;2022-12-07T00:57:13;3.90;99.90
14995;DHT22;7593;49.006;8.372;2022-12-07T00:59:41;3.90;99.90
14995;DHT22;7593;49.006;8.372;2022-12-07T01:02:08;4.00;99.90
14995;DHT22;7593;49.006;8.372;2022-12-07T01:04:34;3.90;99.90
14995;DHT22;7593;49.006;8.372;2022-12-07T01:07:01;3.90;99.90
14995;DHT22;7593;49.006;8.372;2022-12-07T01:09:28;3.90;99.90
14995;DHT22;7593;49.006;8.372;2022-12-07T01:11:55;3.90;99.90
14995;DHT22;7593;49.006;8.372;2022-12-07T01:14:22;3.90;99.90
14995;DHT22;7593;49.006;8.372;2022-12-07T01:16:50;3.90;99.90
14995;DHT22;7593;49.006;8.372;2022-12-07T01:19:16;3.90;99.90
14995;DHT22;7593;49.006;8.372;2022-12-07T01:21:43;3.90;99.90
14995;DHT22;7593;49.006;8.372;2022-12-07T01:24:11;3.80;99.90
14995;DHT22;7593;49.006;8.372;2022-12-07T01:26:38;3.80;99.90
14995;DHT22;7593;49.006;8.372;2022-12-07T01:29:05;3.80;99.90
14995;DHT22;7593;49.006;8.372;2022-12-07T01:31:32;3.80;99.90
14995;DHT22;7593;49.006;8.372;2022-12-07T01:34:00;3.80;99.90
14995;DHT22;7593;49.006;8.372;2022-12-07T01:36:29;3.70;99.90
14995;DHT22;7593;49.006;8.372;2022-12-07T01:38:57;3.70;99.90
14995;DHT22;7593;49.006;8.372;2022-12-07T01:41:25;3.70;99.90
14995;DHT22;7593;49.006;8.372;2022-12-07T01:44:12;3.70;99.90
14995;DHT22;7593;49.006;8.372;2022-12-07T01:46:40;3.70;99.90
14995;DHT22;7593;49.006;8.372;2022-12-07T01:49:13;3.70;99.90
14995;DHT22;7593;49.006;8.372;2022-12-07T01:51:42;3.70;99.90
14995;DHT22;7593;49.006;8.372;2022-12-07T01:54:11;3.70;99.90
14995;DHT22;7593;49.006;8.372;2022-12-07T01:56:40;3.60;99.90
14995;DHT22;7593;49.006;8.372;2022-12-07T01:59:08;3.60;99.90
14995;DHT22;7593;49.006;8.372;2022-12-07T02:01:35;3.60;99.90
14995;DHT22;7593;49.006;8.372;2022-12-07T02:04:02;3.60;99.90
14995;DHT22;7593;49.006;8.372;2022-12-07T02:06:30;3.60;99.90
14995;DHT22;7593;49.006;8.372;2022-12-07T02:08:57;3.60;99.90
14995;DHT22;7593;49.006;8.372;2022-12-07T02:11:24;3.60;99.90
14995;DHT22;7593;49.006;8.372;2022-12-07T02:13:51;3.60;99.90
14995;DHT22;7593;49.006;8.372;2022-12-07T02:16:25;3.60;99.90
14995;DHT22;7593;49.006;8.372;2022-12-07T02:22:18;3.60;99.90
14995;DHT22;7593;49.006;8.372;2022-12-07T02:24:53;3.60;99.90
14995;DHT22;7593;49.006;8.372;2022-12-07T02:27:40;3.60;99.90
14995;DHT22;7593;49.006;8.372;2022-12-07T02:30:10;3.60;99.90
14995;DHT22;7593;49.006;8.372;2022-12-07T02:32:45;3.70;99.90
14995;DHT22;7593;49.006;8.372;2022-12-07T02:35:18;3.60;99.90
14995;DHT22;7593;49.006;8.372;2022-12-07T02:37:53;3.60;99.90
14995;DHT22;7593;49.006;8.372;2022-12-07T02:40:25;3.60;99.90
14995;DHT22;7593;49.006;8.372;2022-12-07T02:42:59;3.60;99.90
14995;DHT22;7593;49.006;8.372;2022-12-07T02:45:30;3.60;99.90
14995;DHT22;7593;49.006;8.372;2022-12-07T02:47:59;3.60;99.90
14995;DHT22;7593;49.006;8.372;2022-12-07T02:50:27;3.60;99.90
14995;DHT22;7593;49.006;8.372;2022-12-07T02:52:54;3.60;99.90
14995;DHT22;7593;49.006;8.372;2022-12-07T02:55:25;3.60;99.90
14995;DHT22;7593;49.006;8.372;2022-12-07T02:58:14;3.60;99.90
14995;DHT22;7593;49.006;8.372;2022-12-07T03:00:54;3.60;99.90
14995;DHT22;7593;49.006;8.372;2022-12-07T03:03:23;3.60;99.90
14995;DHT22;7593;49.006;8.372;2022-12-07T03:06:03;3.60;99.90
14995;DHT22;7593;49.006;8.372;2022-12-07T03:08:42;3.60;99.90
14995;DHT22;7593;49.006;8.372;2022-12-07T03:11:13;3.60;99.90
14995;DHT22;7593;49.006;8.372;2022-12-07T03:13:45;3.60;99.90
14995;DHT22;7593;49.006;8.372;2022-12-07T03:16:17;3.60;99.90
14995;DHT22;7593;49.006;8.372;2022-12-07T03:18:48;3.60;99.90
14995;DHT22;7593;49.006;8.372;2022-12-07T03:21:18;3.70;99.90
14995;DHT22;7593;49.006;8.372;2022-12-07T03:23:56;3.60;99.90
14995;DHT22;7593;49.006;8.372;2022-12-07T03:26:30;3.60;99.90
14995;DHT22;7593;49.006;8.372;2022-12-07T03:29:02;3.60;99.90
14995;DHT22;7593;49.006;8.372;2022-12-07T03:31:37;3.60;99.90
14995;DHT22;7593;49.006;8.372;2022-12-07T03:34:11;3.60;99.90
14995;DHT22;7593;49.006;8.372;2022-12-07T03:36:45;3.60;99.90
14995;DHT22;7593;49.006;8.372;2022-12-07T03:39:19;3.60;99.90
14995;DHT22;7593;49.006;8.372;2022-12-07T03:41:48;3.50;99.90
14995;DHT22;7593;49.006;8.372;2022-12-07T03:44:15;3.50;99.90
14995;DHT22;7593;49.006;8.372;2022-12-07T03:46:47;3.40;99.90
14995;DHT22;7593;49.006;8.372;2022-12-07T03:49:18;3.40;99.90
14995;DHT22;7593;49.006;8.372;2022-12-07T03:51:54;3.30;99.90
14995;DHT22;7593;49.006;8.372;2022-12-07T03:54:26;3.30;99.90
14995;DHT22;7593;49.006;8.372;2022-12-07T03:56:56;3.30;99.90
14995;DHT22;7593;49.006;8.372;2022-12-07T03:59:24;3.30;99.90
14995;DHT22;7593;49.006;8.372;2022-12-07T04:01:55;3.30;99.90
14995;DHT22;7593;49.006;8.372;2022-12-07T04:04:22;3.30;99.90
14995;DHT22;7593;49.006;8.372;2022-12-07T04:06:48;3.30;99.90
14995;DHT22;7593;49.006;8.372;2022-12-07T04:09:15;3.30;99.90
14995;DHT22;7593;49.006;8.372;2022-12-07T04:11:42;3.30;99.90
14995;DHT22;7593;49.006;8.372;2022-12-07T04:14:09;3.30;99.90
14995;DHT22;7593;49.006;8.372;2022-12-07T04:16:45;3.30;99.90
14995;DHT22;7593;49.006;8.372;2022-12-07T04:19:13;3.30;99.90
14995;DHT22;7593;49.006;8.372;2022-12-07T04:21:40;3.30;99.90
14995;DHT22;7593;49.006;8.372;2022-12-07T04:24:07;3.30;99.90
14995;DHT22;7593;49.006;8.372;2022-12-07T04:26:34;3.30;99.90
14995;DHT22;7593;49.006;8.372;2022-12-07T04:29:01;3.30;99.90
14995;DHT22;7593;49.006;8.372;2022-12-07T04:31:27;3.30;99.90
14995;DHT22;7593;49.006;8.372;2022-12-07T04:33:55;3.30;99.90
14995;DHT22;7593;49.006;8.372;2022-12-07T04:36:23;3.30;99.90
14995;DHT22;7593;49.006;8.372;2022-12-07T04:38:49;3.30;99.90
14995;DHT22;7593;49.006;8.372;2022-12-07T04:41:16;3.30;99.90
14995;DHT22;7593;49.006;8.372;2022-12-07T04:43:43;3.40;99.90
14995;DHT22;7593;49.006;8.372;2022-12-07T04:46:10;3.30;99.90
14995;DHT22;7593;49.006;8.372;2022-12-07T04:48:36;3.40;99.90
14995;DHT22;7593;49.006;8.372;2022-12-07T04:51:04;3.40;99.90
14995;DHT22;7593;49.006;8.372;2022-12-07T04:53:32;3.40;99.90
14995;DHT22;7593;49.006;8.372;2022-12-07T04:55:58;3.40;99.90
14995;DHT22;7593;49.006;8.372;2022-12-07T04:58:26;3.40;99.90
14995;DHT22;7593;49.006;8.372;2022-12-07T05:00:54;3.40;99.90
14995;DHT22;7593;49.006;8.372;2022-12-07T05:03:21;3.40;99.90
14995;DHT22;7593;49.006;8.372;2022-12-07T05:05:47;3.40;99.90
14995;DHT22;7593;49.006;8.372;2022-12-07T05:08:14;3.40;99.90
14995;DHT22;7593;49.006;8.372;2022-12-07T05:10:42;3.40;99.90
14995;DHT22;7593;49.006;8.372;2022-12-07T05:13:09;3.40;99.90
14995;DHT22;7593;49.006;8.372;2022-12-07T05:15:36;3.40;99.90
14995;DHT22;7593;49.006;8.372;2022-12-07T05:18:02;3.40;99.90
14995;DHT22;7593;49.006;8.372;2022-12-07T05:20:29;3.40;99.90
14995;DHT22;7593;49.006;8.372;2022-12-07T05:22:57;3.40;99.90
14995;DHT22;7593;49.006;8.372;2022-12-07T05:25:24;3.40;99.90
14995;DHT22;7593;49.006;8.372;2022-12-07T05:27:53;3.40;99.90
14995;DHT22;7593;49.006;8.372;2022-12-07T05:30:21;3.40;99.90
14995;DHT22;7593;49.006;8.372;2022-12-07T05:32:47;3.40;99.90
14995;DHT22;7593;49.006;8.372;2022-12-07T05:35:14;3.40;99.90
14995;DHT22;7593;49.006;8.372;2022-12-07T05:37:44;3.40;99.90
14995;DHT22;7593;49.006;8.372;2022-12-07T05:40:17;3.40;99.90
14995;DHT22;7593;49.006;8.372;2022-12-07T05:42:46;3.40;99.90
14995;DHT22;7593;49.006;8.372;2022-12-07T05:45:17;3.40;99.90
14995;DHT22;7593;49.006;8.372;2022-12-07T05:47:48;3.40;99.90
14995;DHT22;7593;49.006;8.372;2022-12-07T05:50:15;3.50;99.90
14995;DHT22;7593;49.006;8.372;2022-12-07T05:52:44;3.40;99.90
14995;DHT22;7593;49.006;8.372;2022-12-07T05:55:11;3.40;99.90
14995;DHT22;7593;49.006;8.372;2022-12-07T05:57:38;3.40;99.90
14995;DHT22;7593;49.006;8.372;2022-12-07T06:00:27;3.40;99.90
14995;DHT22;7593;49.006;8.372;2022-12-07T06:02:55;3.40;99.90
14995;DHT22;7593;49.006;8.372;2022-12-07T06:05:25;3.40;99.90
14995;DHT22;7593;49.006;8.372;2022-12-07T06:07:55;3.40;99.90
14995;DHT22;7593;49.006;8.372;2022-12-07T06:10:21;3.40;99.90
14995;DHT22;7593;49.006;8.372;2022-12-07T06:12:48;3.40;99.90
14995;DHT22;7593;49.006;8.372;2022-12-07T06:15:14;3.40;99.90
14995;DHT22;7593;49.006;8.372;2022-12-07T06:17:42;3.40;99.90
14995;DHT22;7593;49.006;8.372;2022-12-07T06:20:09;3.40;99.90
14995;DHT22;7593;49.006;8.372;2022-12-07T06:22:36;3.40;99.90
14995;DHT22;7593;49.006;8.372;2022-12-07T06:25:03;3.40;99.90
14995;DHT22;7593;49.006;8.372;2022-12-07T06:27:30;3.40;99.90
14995;DHT22;7593;49.006;8.372;2022-12-07T06:29:58;3.40;99.90
14995;DHT22;7593;49.006;8.372;2022-12-07T06:32:25;3.40;99.90
14995;DHT22;7593;49.006;8.372;2022-12-07T06:34:53;3.40;99.90
14995;DHT22;7593;49.006;8.372;2022-12-07T06:37:20;3.40;99.90
14995;DHT22;7593;49.006;8.372;2022-12-07T06:39:47;3.40;99.90
14995;DHT22;7593;49.006;8.372;2022-12-07T06:42:13;3.40;99.90
14995;DHT22;7593;49.006;8.372;2022-12-07T06:44:40;3.40;99.90
14995;DHT22;7593;49.006;8.372;2022-12-07T06:47:07;3.40;99.90
14995;DHT22;7593;49.006;8.372;2022-12-07T06:49:34;3.40;99.90
14995;DHT22;7593;49.006;8.372;2022-12-07T06:52:03;3.40;99.90
14995;DHT22;7593;49.006;8.372;2022-12-07T06:54:31;3.40;99.90
14995;DHT22;7593;49.006;8.372;2022-12-07T06:56:58;3.40;99.90
14995;DHT22;7593;49.006;8.372;2022-12-07T06:59:24;3.40;99.90
14995;DHT22;7593;49.006;8.372;2022-12-07T07:01:51;3.40;99.90
14995;DHT22;7593;49.006;8.372;2022-12-07T07:04:18;3.40;99.90
14995;DHT22;7593;49.006;8.372;2022-12-07T07:06:44;3.40;99.90
14995;DHT22;7593;49.006;8.372;2022-12-07T07:09:13;3.40;99.90
14995;DHT22;7593;49.006;8.372;2022-12-07T07:11:40;3.40;99.90
14995;DHT22;7593;49.006;8.372;2022-12-07T07:14:07;3.40;99.90
14995;DHT22;7593;49.006;8.372;2022-12-07T07:16:34;3.40;99.90
14995;DHT22;7593;49.006;8.372;2022-12-07T07:19:01;3.40;99.90
14995;DHT22;7593;49.006;8.372;2022-12-07T07:21:27;3.40;99.90
14995;DHT22;7593;49.006;8.372;2022-12-07T07:23:54;3.40;99.90
14995;DHT22;7593;49.006;8.372;2022-12-07T07:26:23;3.40;99.90
14995;DHT22;7593;49.006;8.372;2022-12-07T07:28:50;3.40;99.90
14995;DHT22;7593;49.006;8.372;2022-12-07T07:31:17;3.40;99.90
14995;DHT22;7593;49.006;8.372;2022-12-07T07:33:45;3.40;99.90
14995;DHT22;7593;49.006;8.372;2022-12-07T07:36:11;3.40;99.90
14995;DHT22;7593;49.006;8.372;2022-12-07T07:38:38;3.50;99.90
14995;DHT22;7593;49.006;8.372;2022-12-07T07:41:08;3.50;99.90
14995;DHT22;7593;49.006;8.372;2022-12-07T07:43:36;3.40;99.90
14995;DHT22;7593;49.006;8.372;2022-12-07T07:46:03;3.40;99.90
14995;DHT22;7593;49.006;8.372;2022-12-07T07:48:30;3.40;99.90
14995;DHT22;7593;49.006;8.372;2022-12-07T07:50:57;3.30;99.90
14995;DHT22;7593;49.006;8.372;2022-12-07T07:53:23;3.30;99.90
14995;DHT22;7593;49.006;8.372;2022-12-07T07:55:51;3.30;99.90
14995;DHT22;7593;49.006;8.372;2022-12-07T07:58:18;3.30;99.90
14995;DHT22;7593;49.006;8.372;2022-12-07T08:00:47;3.30;99.90
14995;DHT22;7593;49.006;8.372;2022-12-07T08:03:13;3.30;99.90
14995;DHT22;7593;49.006;8.372;2022-12-07T08:05:41;3.30;99.90
14995;DHT22;7593;49.006;8.372;2022-12-07T08:08:07;3.40;99.90
14995;DHT22;7593;49.006;8.372;2022-12-07T08:10:34;3.40;99.90
14995;DHT22;7593;49.006;8.372;2022-12-07T08:13:02;3.40;99.90
14995;DHT22;7593;49.006;8.372;2022-12-07T08:15:40;3.40;99.90
14995;DHT22;7593;49.006;8.372;2022-12-07T08:18:08;3.40;99.90
14995;DHT22;7593;49.006;8.372;2022-12-07T08:20:36;3.50;99.90
14995;DHT22;7593;49.006;8.372;2022-12-07T08:23:05;3.50;99.90
14995;DHT22;7593;49.006;8.372;2022-12-07T08:25:33;3.50;99.90
14995;DHT22;7593;49.006;8.372;2022-12-07T08:27:59;3.60;99.90
14995;DHT22;7593;49.006;8.372;2022-12-07T08:30:27;3.60;99.90
14995;DHT22;7593;49.006;8.372;2022-12-07T08:32:55;3.60;99.90
14995;DHT22;7593;49.006;8.372;2022-12-07T08:35:24;3.60;99.90
14995;DHT22;7593;49.006;8.372;2022-12-07T08:37:51;3.70;99.90
14995;DHT22;7593;49.006;8.372;2022-12-07T08:40:18;3.70;99.90
14995;DHT22;7593;49.006;8.372;2022-12-07T08:42:49;3.70;99.90
14995;DHT22;7593;49.006;8.372;2022-12-07T08:45:17;3.80;99.90
14995;DHT22;7593;49.006;8.372;2022-12-07T08:47:48;3.80;99.90
14995;DHT22;7593;49.006;8.372;2022-12-07T08:50:16;3.80;99.90
14995;DHT22;7593;49.006;8.372;2022-12-07T08:52:48;3.80;99.90
14995;DHT22;7593;49.006;8.372;2022-12-07T08:55:16;3.80;99.90
14995;DHT22;7593;49.006;8.372;2022-12-07T08:57:43;3.80;99.90
14995;DHT22;7593;49.006;8.372;2022-12-07T09:00:11;3.80;99.90
14995;DHT22;7593;49.006;8.372;2022-12-07T09:02:38;3.80;99.90
14995;DHT22;7593;49.006;8.372;2022-12-07T09:05:06;3.80;99.90
14995;DHT22;7593;49.006;8.372;2022-12-07T09:07:34;3.90;99.90
14995;DHT22;7593;49.006;8.372;2022-12-07T09:10:02;3.90;99.90
14995;DHT22;7593;49.006;8.372;2022-12-07T09:12:29;3.90;99.90
14995;DHT22;7593;49.006;8.372;2022-12-07T09:14:56;3.90;99.90
14995;DHT22;7593;49.006;8.372;2022-12-07T09:17:23;4.00;99.90
14995;DHT22;7593;49.006;8.372;2022-12-07T09:19:49;4.00;99.90
14995;DHT22;7593;49.006;8.372;2022-12-07T09:22:16;4.00;99.90
14995;DHT22;7593;49.006;8.372;2022-12-07T09:24:43;4.00;99.90
14995;DHT22;7593;49.006;8.372;2022-12-07T09:27:12;4.00;99.90
14995;DHT22;7593;49.006;8.372;2022-12-07T09:29:39;4.10;99.90
14995;DHT22;7593;49.006;8.372;2022-12-07T09:32:05;4.10;99.90
14995;DHT22;7593;49.006;8.372;2022-12-07T09:34:32;4.10;99.90
14995;DHT22;7593;49.006;8.372;2022-12-07T09:37:00;4.10;99.90
14995;DHT22;7593;49.006;8.372;2022-12-07T09:39:28;4.20;99.90
14995;DHT22;7593;49.006;8.372;2022-12-07T09:41:57;4.20;99.90
14995;DHT22;7593;49.006;8.372;2022-12-07T09:44:27;4.20;99.90
14995;DHT22;7593;49.006;8.372;2022-12-07T09:46:55;4.20;99.90
14995;DHT22;7593;49.006;8.372;2022-12-07T09:49:23;4.20;99.90
14995;DHT22;7593;49.006;8.372;2022-12-07T09:52:01;4.20;99.90
14995;DHT22;7593;49.006;8.372;2022-12-07T09:54:29;4.20;99.90
14995;DHT22;7593;49.006;8.372;2022-12-07T09:56:56;4.20;99.90
14995;DHT22;7593;49.006;8.372;2022-12-07T09:59:23;4.30;99.90
14995;DHT22;7593;49.006;8.372;2022-12-07T10:01:51;4.30;99.90
14995;DHT22;7593;49.006;8.372;2022-12-07T10:04:20;4.30;99.90
14995;DHT22;7593;49.006;8.372;2022-12-07T10:06:48;4.40;99.90
14995;DHT22;7593;49.006;8.372;2022-12-07T10:09:17;4.50;99.90
14995;DHT22;7593;49.006;8.372;2022-12-07T10:12:02;4.50;99.90
14995;DHT22;7593;49.006;8.372;2022-12-07T10:14:31;4.50;99.90
14995;DHT22;7593;49.006;8.372;2022-12-07T10:17:00;4.50;99.90
14995;DHT22;7593;49.006;8.372;2022-12-07T10:19:28;4.50;99.90
14995;DHT22;7593;49.006;8.372;2022-12-07T10:22:11;4.50;99.90
14995;DHT22;7593;49.006;8.372;2022-12-07T10:24:38;4.50;99.90
14995;DHT22;7593;49.006;8.372;2022-12-07T10:27:17;4.50;99.90
14995;DHT22;7593;49.006;8.372;2022-12-07T10:29:48;4.50;99.90
14995;DHT22;7593;49.006;8.372;2022-12-07T10:32:31;4.50;99.90
14995;DHT22;7593;49.006;8.372;2022-12-07T10:35:19;4.50;99.90
14995;DHT22;7593;49.006;8.372;2022-12-07T10:37:47;4.50;99.90
14995;DHT22;7593;49.006;8.372;2022-12-07T10:40:31;4.50;99.90
14995;DHT22;7593;49.006;8.372;2022-12-07T10:43:12;4.50;99.90
14995;DHT22;7593;49.006;8.372;2022-12-07T10:46:07;4.50;99.90
14995;DHT22;7593;49.006;8.372;2022-12-07T10:48:48;4.50;99.90
14995;DHT22;7593;49.006;8.372;2022-12-07T10:51:23;4.50;99.90
14995;DHT22;7593;49.006;8.372;2022-12-07T10:54:03;4.50;99.90
14995;DHT22;7593;49.006;8.372;2022-12-07T10:56:53;4.50;99.90
14995;DHT22;7593;49.006;8.372;2022-12-07T10:59:42;4.50;99.90
14995;DHT22;7593;49.006;8.372;2022-12-07T11:02:24;4.50;99.90
14995;DHT22;7593;49.006;8.372;2022-12-07T11:05:02;4.50;99.90
14995;DHT22;7593;49.006;8.372;2022-12-07T11:07:41;4.50;99.90
14995;DHT22;7593;49.006;8.372;2022-12-07T11:10:14;4.50;99.90
14995;DHT22;7593;49.006;8.372;2022-12-07T11:12:53;4.50;99.90
14995;DHT22;7593;49.006;8.372;2022-12-07T11:15:24;4.50;99.90
14995;DHT22;7593;49.006;8.372;2022-12-07T11:17:58;4.50;99.90
14995;DHT22;7593;49.006;8.372;2022-12-07T11:20:41;4.60;99.90
14995;DHT22;7593;49.006;8.372;2022-12-07T11:23:21;4.60;99.90
14995;DHT22;7593;49.006;8.372;2022-12-07T11:25:57;4.60;99.90
14995;DHT22;7593;49.006;8.372;2022-12-07T11:28:40;4.60;99.90
14995;DHT22;7593;49.006;8.372;2022-12-07T11:31:13;4.70;99.90
14995;DHT22;7593;49.006;8.372;2022-12-07T11:33:47;4.70;99.90
14995;DHT22;7593;49.006;8.372;2022-12-07T11:36:31;4.70;99.90
14995;DHT22;7593;49.006;8.372;2022-12-07T11:39:01;4.80;99.90
14995;DHT22;7593;49.006;8.372;2022-12-07T11:41:33;4.80;99.90
14995;DHT22;7593;49.006;8.372;2022-12-07T11:44:06;4.80;99.90
14995;DHT22;7593;49.006;8.372;2022-12-07T11:46:43;4.90;99.90
14995;DHT22;7593;49.006;8.372;2022-12-07T11:49:15;4.90;99.90
14995;DHT22;7593;49.006;8.372;2022-12-07T11:51:49;4.90;99.90
14995;DHT22;7593;49.006;8.372;2022-12-07T11:54:20;4.80;99.90
14995;DHT22;7593;49.006;8.372;2022-12-07T11:56:49;4.80;99.90
14995;DHT22;7593;49.006;8.372;2022-12-07T11:59:22;4.80;99.90
14995;DHT22;7593;49.006;8.372;2022-12-07T12:01:53;4.80;99.90
14995;DHT22;7593;49.006;8.372;2022-12-07T12:04:31;4.90;99.90
14995;DHT22;7593;49.006;8.372;2022-12-07T12:07:00;4.90;99.90
14995;DHT22;7593;49.006;8.372;2022-12-07T12:09:30;4.80;99.90
14995;DHT22;7593;49.006;8.372;2022-12-07T12:12:24;4.80;99.90
14995;DHT22;7593;49.006;8.372;2022-12-07T12:15:04;4.80;99.90
14995;DHT22;7593;49.006;8.372;2022-12-07T12:18:05;4.80;99.90
14995;DHT22;7593;49.006;8.372;2022-12-07T12:20:39;4.80;99.90
14995;DHT22;7593;49.006;8.372;2022-12-07T12:23:12;4.90;99.90
14995;DHT22;7593;49.006;8.372;2022-12-07T12:25:43;4.90;99.90
14995;DHT22;7593;49.006;8.372;2022-12-07T12:28:23;4.90;99.90
14995;DHT22;7593;49.006;8.372;2022-12-07T12:31:07;4.90;99.90
14995;DHT22;7593;49.006;8.372;2022-12-07T12:33:35;4.90;99.90
14995;DHT22;7593;49.006;8.372;2022-12-07T12:36:26;4.90;99.90
14995;DHT22;7593;49.006;8.372;2022-12-07T12:39:13;5.00;99.90
14995;DHT22;7593;49.006;8.372;2022-12-07T12:41:57;5.00;99.90
14995;DHT22;7593;49.006;8.372;2022-12-07T12:45:18;5.10;99.90
14995;DHT22;7593;49.006;8.372;2022-12-07T12:47:54;5.10;99.90
14995;DHT22;7593;49.006;8.372;2022-12-07T12:50:23;5.10;99.90
14995;DHT22;7593;49.006;8.372;2022-12-07T12:53:16;5.10;99.90
14995;DHT22;7593;49.006;8.372;2022-12-07T12:56:10;5.10;99.90
14995;DHT22;7593;49.006;8.372;2022-12-07T12:58:44;5.00;99.90
14995;DHT22;7593;49.006;8.372;2022-12-07T13:04:18;5.00;99.90
14995;DHT22;7593;49.006;8.372;2022-12-07T13:06:48;5.10;99.90
14995;DHT22;7593;49.006;8.372;2022-12-07T13:09:21;5.10;99.90
14995;DHT22;7593;49.006;8.372;2022-12-07T13:11:56;5.10;99.90
14995;DHT22;7593;49.006;8.372;2022-12-07T13:14:42;5.10;99.90
14995;DHT22;7593;49.006;8.372;2022-12-07T13:17:10;5.10;99.90
14995;DHT22;7593;49.006;8.372;2022-12-07T13:19:58;5.00;99.90
14995;DHT22;7593;49.006;8.372;2022-12-07T13:22:43;5.00;99.90
14995;DHT22;7593;49.006;8.372;2022-12-07T13:25:12;5.00;99.90
14995;DHT22;7593;49.006;8.372;2022-12-07T13:27:43;5.00;99.90
14995;DHT22;7593;49.006;8.372;2022-12-07T13:30:15;4.90;99.90
14995;DHT22;7593;49.006;8.372;2022-12-07T13:32:42;4.90;99.90
14995;DHT22;7593;49.006;8.372;2022-12-07T13:35:33;4.80;99.90
14995;DHT22;7593;49.006;8.372;2022-12-07T13:38:02;4.80;99.90
14995;DHT22;7593;49.006;8.372;2022-12-07T13:40:31;4.70;99.90
14995;DHT22;7593;49.006;8.372;2022-12-07T13:43:01;4.80;99.90
14995;DHT22;7593;49.006;8.372;2022-12-07T13:45:29;4.80;99.90
14995;DHT22;7593;49.006;8.372;2022-12-07T13:48:17;4.80;99.90
14995;DHT22;7593;49.006;8.372;2022-12-07T13:50:53;4.80;99.90
14995;DHT22;7593;49.006;8.372;2022-12-07T13:53:20;4.80;99.90
14995;DHT22;7593;49.006;8.372;2022-12-07T13:55:47;4.80;99.90
14995;DHT22;7593;49.006;8.372;2022-12-07T13:58:15;4.80;99.90
14995;DHT22;7593;49.006;8.372;2022-12-07T14:00:43;4.80;99.90
14995;DHT22;7593;49.006;8.372;2022-12-07T14:03:27;4.80;99.90
14995;DHT22;7593;49.006;8.372;2022-12-07T14:06:23;4.80;99.90
14995;DHT22;7593;49.006;8.372;2022-12-07T14:09:06;4.80;99.90
14995;DHT22;7593;49.006;8.372;2022-12-07T14:11:34;4.80;99.90
14995;DHT22;7593;49.006;8.372;2022-12-07T14:14:03;4.80;99.90
14995;DHT22;7593;49.006;8.372;2022-12-07T14:16:32;4.80;99.90
14995;DHT22;7593;49.006;8.372;2022-12-07T14:19:01;4.80;99.90
14995;DHT22;7593;49.006;8.372;2022-12-07T14:21:30;4.80;99.90
14995;DHT22;7593;49.006;8.372;2022-12-07T14:24:09;4.80;99.90
14995;DHT22;7593;49.006;8.372;2022-12-07T14:26:37;4.80;99.90
14995;DHT22;7593;49.006;8.372;2022-12-07T14:29:22;4.80;99.90
14995;DHT22;7593;49.006;8.372;2022-12-07T14:31:51;4.80;99.90
14995;DHT22;7593;49.006;8.372;2022-12-07T14:34:20;4.90;99.90
14995;DHT22;7593;49.006;8.372;2022-12-07T14:36:46;4.90;99.90
14995;DHT22;7593;49.006;8.372;2022-12-07T14:39:13;4.90;99.90
14995;DHT22;7593;49.006;8.372;2022-12-07T14:41:40;4.90;99.90
14995;DHT22;7593;49.006;8.372;2022-12-07T14:44:21;4.90;99.90
14995;DHT22;7593;49.006;8.372;2022-12-07T14:46:49;4.90;99.90
14995;DHT22;7593;49.006;8.372;2022-12-07T14:49:16;4.80;99.90
14995;DHT22;7593;49.006;8.372;2022-12-07T14:51:45;4.80;99.90
14995;DHT22;7593;49.006;8.372;2022-12-07T14:54:16;4.80;99.90
14995;DHT22;7593;49.006;8.372;2022-12-07T14:56:43;4.80;99.90
14995;DHT22;7593;49.006;8.372;2022-12-07T14:59:11;4.80;99.90
14995;DHT22;7593;49.006;8.372;2022-12-07T15:01:39;4.80;99.90
14995;DHT22;7593;49.006;8.372;2022-12-07T15:04:06;4.70;99.90
14995;DHT22;7593;49.006;8.372;2022-12-07T15:06:33;4.70;99.90
14995;DHT22;7593;49.006;8.372;2022-12-07T15:09:00;4.70;99.90
14995;DHT22;7593;49.006;8.372;2022-12-07T15:11:27;4.70;99.90
14995;DHT22;7593;49.006;8.372;2022-12-07T15:13:54;4.70;99.90
14995;DHT22;7593;49.006;8.372;2022-12-07T15:16:40;4.70;99.90
14995;DHT22;7593;49.006;8.372;2022-12-07T15:19:12;4.70;99.90
14995;DHT22;7593;49.006;8.372;2022-12-07T15:21:40;4.70;99.90
14995;DHT22;7593;49.006;8.372;2022-12-07T15:24:08;4.70;99.90
14995;DHT22;7593;49.006;8.372;2022-12-07T15:26:36;4.70;99.90
14995;DHT22;7593;49.006;8.372;2022-12-07T15:29:03;4.60;99.90
14995;DHT22;7593;49.006;8.372;2022-12-07T15:31:30;4.60;99.90
14995;DHT22;7593;49.006;8.372;2022-12-07T15:33:58;4.60;99.90
14995;DHT22;7593;49.006;8.372;2022-12-07T15:36:28;4.60;99.90
14995;DHT22;7593;49.006;8.372;2022-12-07T15:38:55;4.60;99.90
14995;DHT22;7593;49.006;8.372;2022-12-07T15:41:23;4.60;99.90
14995;DHT22;7593;49.006;8.372;2022-12-07T15:43:50;4.60;99.90
14995;DHT22;7593;49.006;8.372;2022-12-07T15:46:36;4.60;99.90
14995;DHT22;7593;49.006;8.372;2022-12-07T15:49:08;4.50;99.90
14995;DHT22;7593;49.006;8.372;2022-12-07T15:51:35;4.50;99.90
14995;DHT22;7593;49.006;8.372;2022-12-07T15:54:02;4.50;99.90
14995;DHT22;7593;49.006;8.372;2022-12-07T15:56:29;4.50;99.90
14995;DHT22;7593;49.006;8.372;2022-12-07T15:58:56;4.50;99.90
14995;DHT22;7593;49.006;8.372;2022-12-07T16:01:23;4.40;99.90
14995;DHT22;7593;49.006;8.372;2022-12-07T16:03:49;4.40;99.90
14995;DHT22;7593;49.006;8.372;2022-12-07T16:06:18;4.40;99.90
14995;DHT22;7593;49.006;8.372;2022-12-07T16:08:45;4.40;99.90
14995;DHT22;7593;49.006;8.372;2022-12-07T16:11:12;4.40;99.90
14995;DHT22;7593;49.006;8.372;2022-12-07T16:13:39;4.30;99.90
14995;DHT22;7593;49.006;8.372;2022-12-07T16:16:08;4.30;99.90
14995;DHT22;7593;49.006;8.372;2022-12-07T16:18:36;4.30;99.90
14995;DHT22;7593;49.006;8.372;2022-12-07T16:21:03;4.20;99.90
14995;DHT22;7593;49.006;8.372;2022-12-07T16:23:31;4.20;99.90
14995;DHT22;7593;49.006;8.372;2022-12-07T16:26:04;4.20;99.90
14995;DHT22;7593;49.006;8.372;2022-12-07T16:28:31;4.20;99.90
14995;DHT22;7593;49.006;8.372;2022-12-07T16:31:02;4.10;99.90